Time;durP1;ratioP1;P1;durP2;ratioP2;P2;SDS_P1;SDS_P2;PMS_P1;PMS_P2;Temp;Humidity;BMP_temperature;BMP_pressure;BME280_temperature;BME280_humidity;BME280_pressure;Samples;Min_cycle;Max_cycle;Signal;HPM_P1;HPM_P2
2023/01/05 00:01:24;;;;;;;1.70;1.00;;;;;;;;;;5093758;28;20447;-73
2023/01/05 00:03:51;;;;;;;1.50;1.00;;;;;;;;;;5092920;28;20459;-74
2023/01/05 00:06:19;;;;;;;1.70;1.00;;;;;;;;;;5093833;28;20947;-73
2023/01/05 00:08:46;;;;;;;1.90;1.60;;;;;;;;;;5093751;28;20471;-73
2023/01/05 00:22:31;;;;;;;3.00;1.30;;;;;;;;;;5093549;28;20914;-73
2023/01/05 00:24:58;;;;;;;2.00;1.40;;;;;;;;;;5093733;28;20430;-73
2023/01/05 00:27:26;;;;;;;5.40;1.77;;;;;;;;;;5093641;28;20455;-74
2023/01/05 00:29:55;;;;;;;1.83;1.00;;;;;;;;;;5093445;28;20908;-73
2023/01/05 00:32:24;;;;;;;3.20;1.30;;;;;;;;;;5093639;28;20442;-74
2023/01/05 00:34:54;;;;;;;2.13;1.40;;;;;;;;;;5093341;28;20833;-74
2023/01/05 00:37:21;;;;;;;1.67;1.00;;;;;;;;;;5093284;28;20466;-74
2023/01/05 00:39:48;;;;;;;3.27;2.00;;;;;;;;;;5092999;28;21033;-73
2023/01/05 00:42:15;;;;;;;1.50;1.00;;;;;;;;;;5093571;28;20835;-73
2023/01/05 00:44:42;;;;;;;1.40;0.80;;;;;;;;;;5093375;28;20458;-74
2023/01/05 00:47:10;;;;;;;1.50;1.00;;;;;;;;;;5093336;28;20462;-74
2023/01/05 00:49:38;;;;;;;1.30;0.77;;;;;;;;;;5093167;28;20477;-74
2023/01/05 00:52:05;;;;;;;1.30;0.90;;;;;;;;;;5093452;28;20467;-73
2023/01/05 00:54:32;;;;;;;3.63;1.07;;;;;;;;;;5093249;28;20450;-73
2023/01/05 00:56:59;;;;;;;1.30;1.00;;;;;;;;;;5093329;28;20462;-73
2023/01/05 00:59:26;;;;;;;2.60;1.10;;;;;;;;;;5092772;28;20498;-73
2023/01/05 01:01:54;;;;;;;1.30;0.87;;;;;;;;;;5093011;28;20458;-74
2023/01/05 01:04:21;;;;;;;1.83;1.07;;;;;;;;;;5092889;28;20450;-74
2023/01/05 01:06:50;;;;;;;1.60;1.03;;;;;;;;;;5093207;28;20462;-73
2023/01/05 01:09:17;;;;;;;1.80;1.20;;;;;;;;;;5092699;28;20474;-73
2023/01/05 01:11:44;;;;;;;1.40;0.90;;;;;;;;;;5093232;28;20790;-74
2023/01/05 01:14:12;;;;;;;2.27;0.90;;;;;;;;;;5092948;28;20450;-74
2023/01/05 01:16:40;;;;;;;1.67;1.10;;;;;;;;;;5095136;28;20507;-73
2023/01/05 01:19:08;;;;;;;1.53;1.00;;;;;;;;;;5096999;28;21001;-74
2023/01/05 01:21:35;;;;;;;1.60;1.03;;;;;;;;;;5096967;28;20460;-74
2023/01/05 01:24:03;;;;;;;1.67;0.80;;;;;;;;;;5096547;28;20453;-73
2023/01/05 01:26:30;;;;;;;1.30;0.90;;;;;;;;;;5096922;28;20447;-73
2023/01/05 01:28:57;;;;;;;1.50;0.70;;;;;;;;;;5096771;28;20831;-73
2023/01/05 01:31:24;;;;;;;1.47;0.83;;;;;;;;;;5096816;28;20449;-73
2023/01/05 01:33:51;;;;;;;1.30;0.80;;;;;;;;;;5096494;28;20442;-74
2023/01/05 01:36:19;;;;;;;1.23;0.97;;;;;;;;;;5096452;28;20441;-74
2023/01/05 01:38:46;;;;;;;1.40;0.90;;;;;;;;;;5096207;28;20574;-74
2023/01/05 01:41:14;;;;;;;1.47;1.00;;;;;;;;;;5096494;28;20490;-74
2023/01/05 01:43:46;;;;;;;1.30;0.80;;;;;;;;;;5096468;28;20458;-73
2023/01/05 01:46:14;;;;;;;1.30;0.80;;;;;;;;;;5096537;28;20431;-73
2023/01/05 01:48:42;;;;;;;1.30;0.70;;;;;;;;;;5096387;28;20967;-74
2023/01/05 01:51:12;;;;;;;1.30;0.80;;;;;;;;;;5096485;28;20439;-74
2023/01/05 01:53:41;;;;;;;1.20;0.80;;;;;;;;;;5096241;28;20450;-74
2023/01/05 01:56:10;;;;;;;1.20;0.70;;;;;;;;;;5096003;28;20924;-74
2023/01/05 01:58:38;;;;;;;1.37;1.27;;;;;;;;;;5095981;28;20509;-74
2023/01/05 02:01:06;;;;;;;1.47;0.80;;;;;;;;;;5096314;28;20491;-73
2023/01/05 02:03:33;;;;;;;1.20;0.70;;;;;;;;;;5095996;28;20450;-73
2023/01/05 02:06:00;;;;;;;1.10;0.70;;;;;;;;;;5096339;28;20819;-74
2023/01/05 02:08:31;;;;;;;1.10;0.70;;;;;;;;;;5095944;28;20859;-74
2023/01/05 02:11:16;;;;;;;1.20;0.90;;;;;;;;;;5095752;28;20442;-74
2023/01/05 02:13:50;;;;;;;1.17;0.70;;;;;;;;;;5096130;28;20431;-74
2023/01/05 02:16:21;;;;;;;1.10;0.70;;;;;;;;;;5095777;28;20438;-73
2023/01/05 02:18:58;;;;;;;1.30;0.70;;;;;;;;;;5095953;28;20490;-74
2023/01/05 02:21:30;;;;;;;1.30;0.70;;;;;;;;;;5095924;28;20519;-73
2023/01/05 02:24:12;;;;;;;1.30;0.70;;;;;;;;;;5095510;28;20435;-73
2023/01/05 02:27:06;;;;;;;1.20;0.80;;;;;;;;;;5095682;28;20907;-73
2023/01/05 02:29:51;;;;;;;1.10;0.70;;;;;;;;;;5095610;28;20481;-74
2023/01/05 02:32:22;;;;;;;1.10;0.70;;;;;;;;;;5095400;28;20434;-74
2023/01/05 02:34:53;;;;;;;1.10;0.70;;;;;;;;;;5095143;28;20552;-74
2023/01/05 02:37:25;;;;;;;1.23;0.73;;;;;;;;;;5095600;28;20955;-74
2023/01/05 02:39:58;;;;;;;1.10;0.70;;;;;;;;;;5095259;28;20864;-74
2023/01/05 02:42:25;;;;;;;1.30;0.80;;;;;;;;;;5095336;28;20488;-73
2023/01/05 02:44:52;;;;;;;1.20;0.70;;;;;;;;;;5095188;28;20455;-74
2023/01/05 02:47:40;;;;;;;1.20;0.70;;;;;;;;;;5095491;28;20458;-74
2023/01/05 02:50:10;;;;;;;1.30;0.80;;;;;;;;;;5095345;28;20947;-74
2023/01/05 02:52:40;;;;;;;1.10;0.70;;;;;;;;;;5095216;28;20454;-74
2023/01/05 02:55:10;;;;;;;1.57;0.87;;;;;;;;;;5094750;28;20457;-73
2023/01/05 02:57:47;;;;;;;1.20;0.70;;;;;;;;;;5095216;28;20455;-73
2023/01/05 03:00:15;;;;;;;1.23;0.70;;;;;;;;;;5095252;28;20996;-73
2023/01/05 03:02:44;;;;;;;2.50;0.80;;;;;;;;;;5094975;28;20451;-74
2023/01/05 03:05:14;;;;;;;1.60;0.83;;;;;;;;;;5094448;28;20458;-74
2023/01/05 03:07:43;;;;;;;1.20;0.70;;;;;;;;;;5094863;28;20470;-74
2023/01/05 03:15:44;;;;;;;1.30;0.70;;;;;;;;;;5094641;28;20426;-74
2023/01/05 03:18:15;;;;;;;1.30;0.90;;;;;;;;;;5094719;28;20478;-74
2023/01/05 03:20:44;;;;;;;1.10;0.70;;;;;;;;;;5094792;28;20971;-74
2023/01/05 03:37:11;;;;;;;1.20;0.90;;;;;;;;;;5094200;28;20989;-74
2023/01/05 03:39:40;;;;;;;2.93;0.80;;;;;;;;;;5093478;28;20501;-74
2023/01/05 03:42:09;;;;;;;1.10;0.80;;;;;;;;;;5093959;28;20490;-73
2023/01/05 03:44:36;;;;;;;1.10;0.70;;;;;;;;;;5094689;28;21016;-73
2023/01/05 03:47:04;;;;;;;1.10;0.70;;;;;;;;;;5093958;28;20455;-73
2023/01/05 03:49:32;;;;;;;1.10;0.70;;;;;;;;;;5094540;28;20841;-74
2023/01/05 03:51:59;;;;;;;1.27;0.73;;;;;;;;;;5094118;28;20935;-74
2023/01/05 03:54:26;;;;;;;1.20;0.80;;;;;;;;;;5093770;28;20944;-74
2023/01/05 03:56:53;;;;;;;3.60;0.93;;;;;;;;;;5093925;28;20963;-73
2023/01/05 03:59:21;;;;;;;2.47;0.90;;;;;;;;;;5093846;28;20540;-74
2023/01/05 04:01:48;;;;;;;1.20;0.80;;;;;;;;;;5093717;28;20482;-73
2023/01/05 04:04:15;;;;;;;1.30;0.90;;;;;;;;;;5093902;28;20454;-73
2023/01/05 04:06:44;;;;;;;1.20;0.70;;;;;;;;;;5094014;28;20458;-73
2023/01/05 04:09:11;;;;;;;1.10;0.70;;;;;;;;;;5093543;28;20473;-73
2023/01/05 04:11:38;;;;;;;3.50;0.80;;;;;;;;;;5093852;28;20458;-74
2023/01/05 04:14:05;;;;;;;1.30;0.80;;;;;;;;;;5093788;28;20458;-74
2023/01/05 04:16:32;;;;;;;1.20;0.80;;;;;;;;;;5093864;28;20451;-73
2023/01/05 04:18:59;;;;;;;1.20;0.70;;;;;;;;;;5093831;28;20545;-73
2023/01/05 04:21:27;;;;;;;1.10;0.60;;;;;;;;;;5093354;28;20493;-73
2023/01/05 04:23:55;;;;;;;1.10;0.70;;;;;;;;;;5093135;28;20453;-74
2023/01/05 04:26:22;;;;;;;1.27;0.80;;;;;;;;;;5093488;28;20932;-73
2023/01/05 04:28:49;;;;;;;1.20;0.70;;;;;;;;;;5093477;28;20985;-73
2023/01/05 04:31:16;;;;;;;1.67;1.33;;;;;;;;;;5092918;28;20434;-73
2023/01/05 04:33:44;;;;;;;1.20;0.80;;;;;;;;;;5093003;28;20454;-75
2023/01/05 04:36:11;;;;;;;1.10;0.70;;;;;;;;;;5093548;28;20450;-74
2023/01/05 04:38:38;;;;;;;1.10;0.70;;;;;;;;;;5093170;28;20486;-74
2023/01/05 04:41:07;;;;;;;1.17;0.70;;;;;;;;;;5093414;28;20491;-74
2023/01/05 04:43:34;;;;;;;1.20;0.77;;;;;;;;;;5092995;28;20457;-74
2023/01/05 04:46:01;;;;;;;2.40;0.80;;;;;;;;;;5093003;28;20447;-74
2023/01/05 04:48:30;;;;;;;1.50;0.73;;;;;;;;;;5093115;28;20463;-74
2023/01/05 04:50:57;;;;;;;1.50;1.20;;;;;;;;;;5094048;28;20453;-74
2023/01/05 04:53:25;;;;;;;2.37;0.70;;;;;;;;;;5097629;28;20450;-74
2023/01/05 04:55:52;;;;;;;1.23;0.80;;;;;;;;;;5097180;28;20458;-74
2023/01/05 04:58:21;;;;;;;1.20;0.80;;;;;;;;;;5097229;28;20477;-74
2023/01/05 05:00:49;;;;;;;1.20;0.80;;;;;;;;;;5097356;28;20493;-73
2023/01/05 05:03:16;;;;;;;1.43;0.80;;;;;;;;;;5097138;28;20466;-74
2023/01/05 05:05:43;;;;;;;1.50;1.20;;;;;;;;;;5097062;28;20443;-73
2023/01/05 05:08:10;;;;;;;1.73;1.00;;;;;;;;;;5097225;28;20475;-73
2023/01/05 05:10:38;;;;;;;1.20;0.77;;;;;;;;;;5097275;28;20461;-73
2023/01/05 05:13:05;;;;;;;1.30;0.80;;;;;;;;;;5097210;28;20954;-73
2023/01/05 05:15:33;;;;;;;1.20;0.80;;;;;;;;;;5097127;28;20935;-73
2023/01/05 05:18:00;;;;;;;2.27;0.90;;;;;;;;;;5096787;28;20829;-74
2023/01/05 05:20:27;;;;;;;1.20;0.80;;;;;;;;;;5096938;28;20430;-74
2023/01/05 05:22:54;;;;;;;1.37;0.77;;;;;;;;;;5097036;28;20461;-73
2023/01/05 05:25:21;;;;;;;1.80;1.30;;;;;;;;;;5096968;28;20454;-73
2023/01/05 05:27:48;;;;;;;1.20;0.80;;;;;;;;;;5096857;28;20479;-74
2023/01/05 05:30:15;;;;;;;1.30;0.90;;;;;;;;;;5095427;28;20446;-74
2023/01/05 05:32:44;;;;;;;1.13;0.70;;;;;;;;;;5096971;28;20918;-74
2023/01/05 05:35:11;;;;;;;1.23;0.80;;;;;;;;;;5096355;28;20458;-74
2023/01/05 05:37:38;;;;;;;1.30;0.80;;;;;;;;;;5096152;28;20446;-74
2023/01/05 05:40:06;;;;;;;1.40;0.70;;;;;;;;;;5096354;28;20438;-73
2023/01/05 05:42:33;;;;;;;3.30;0.70;;;;;;;;;;5096856;28;20994;-74
2023/01/05 05:45:01;;;;;;;1.37;0.70;;;;;;;;;;5096271;28;20829;-73
2023/01/05 05:47:28;;;;;;;1.20;0.80;;;;;;;;;;5096532;28;20442;-73
2023/01/05 05:49:56;;;;;;;2.43;1.50;;;;;;;;;;5096523;28;20931;-73
2023/01/05 05:52:23;;;;;;;3.43;0.93;;;;;;;;;;5096561;28;20446;-74
2023/01/05 05:54:51;;;;;;;1.30;0.90;;;;;;;;;;5096382;28;20818;-73
2023/01/05 05:57:18;;;;;;;1.10;0.70;;;;;;;;;;5096368;28;20450;-73
2023/01/05 05:59:45;;;;;;;1.50;0.80;;;;;;;;;;5096206;28;20471;-73
2023/01/05 06:02:12;;;;;;;1.30;0.83;;;;;;;;;;5095819;28;20982;-73
2023/01/05 06:04:39;;;;;;;1.10;0.70;;;;;;;;;;5096168;28;20943;-73
2023/01/05 06:07:07;;;;;;;2.53;0.90;;;;;;;;;;5095942;28;20459;-73
2023/01/05 06:09:34;;;;;;;1.30;0.73;;;;;;;;;;5096079;28;20474;-74
2023/01/05 06:12:02;;;;;;;1.73;1.20;;;;;;;;;;5095736;28;20451;-74
2023/01/05 06:14:29;;;;;;;1.10;0.70;;;;;;;;;;5095793;28;20435;-74
2023/01/05 06:16:56;;;;;;;1.20;0.70;;;;;;;;;;5095854;28;20458;-74
2023/01/05 06:19:23;;;;;;;1.77;0.80;;;;;;;;;;5095890;28;20471;-74
2023/01/05 06:21:51;;;;;;;1.20;0.80;;;;;;;;;;5095454;28;20482;-74
2023/01/05 06:24:19;;;;;;;1.57;0.80;;;;;;;;;;5095830;28;20439;-74
2023/01/05 06:26:46;;;;;;;2.80;0.97;;;;;;;;;;5095740;28;20462;-74
2023/01/05 06:29:13;;;;;;;1.20;0.70;;;;;;;;;;5094680;28;20486;-75
2023/01/05 06:31:40;;;;;;;1.20;0.80;;;;;;;;;;5095329;28;20427;-73
2023/01/05 06:34:08;;;;;;;1.80;0.90;;;;;;;;;;5095643;28;20435;-74
2023/01/05 06:36:35;;;;;;;1.20;0.80;;;;;;;;;;5095239;28;20450;-73
2023/01/05 06:39:02;;;;;;;1.27;0.83;;;;;;;;;;5095118;28;20818;-73
2023/01/05 06:41:30;;;;;;;1.20;0.77;;;;;;;;;;5095472;28;20908;-73
2023/01/05 06:43:57;;;;;;;1.20;0.80;;;;;;;;;;5095519;28;20458;-74
2023/01/05 06:46:24;;;;;;;1.20;0.80;;;;;;;;;;5095091;28;20462;-73
2023/01/05 06:48:51;;;;;;;1.13;0.70;;;;;;;;;;5095029;28;20477;-73
2023/01/05 06:51:19;;;;;;;2.10;1.10;;;;;;;;;;5095279;28;20947;-74
2023/01/05 06:53:46;;;;;;;1.40;0.90;;;;;;;;;;5095046;28;20462;-75
2023/01/05 06:56:21;;;;;;;2.47;1.07;;;;;;;;;;5094872;28;20458;-73
2023/01/05 06:58:50;;;;;;;1.10;0.70;;;;;;;;;;5095147;28;20479;-73
2023/01/05 07:01:17;;;;;;;1.47;0.90;;;;;;;;;;5095094;28;20479;-73
2023/01/05 07:03:44;;;;;;;2.23;1.43;;;;;;;;;;5094799;28;20455;-74
2023/01/05 07:06:14;;;;;;;1.60;1.03;;;;;;;;;;5094691;28;20450;-74
2023/01/05 07:08:41;;;;;;;1.30;0.80;;;;;;;;;;5094992;28;20478;-73
2023/01/05 07:11:08;;;;;;;1.10;0.70;;;;;;;;;;5094899;28;20477;-73
2023/01/05 07:13:35;;;;;;;1.20;0.80;;;;;;;;;;5093986;28;20447;-74
2023/01/05 07:16:04;;;;;;;1.20;0.83;;;;;;;;;;5094611;28;20457;-73
2023/01/05 07:18:31;;;;;;;1.30;0.80;;;;;;;;;;5094525;28;20487;-73
2023/01/05 07:20:59;;;;;;;1.23;0.77;;;;;;;;;;5094370;28;20447;-73
2023/01/05 07:23:27;;;;;;;1.40;0.80;;;;;;;;;;5090714;28;20454;-74
2023/01/05 07:25:54;;;;;;;1.30;0.80;;;;;;;;;;5094419;28;20486;-73
2023/01/05 07:28:22;;;;;;;1.20;0.80;;;;;;;;;;5094231;28;20474;-73
2023/01/05 07:30:51;;;;;;;1.63;1.00;;;;;;;;;;5093518;28;20478;-73
2023/01/05 07:33:20;;;;;;;1.50;0.87;;;;;;;;;;5094686;28;20889;-74
2023/01/05 07:35:47;;;;;;;1.30;0.80;;;;;;;;;;5094412;28;20439;-74
2023/01/05 07:38:14;;;;;;;1.13;0.70;;;;;;;;;;5094221;28;20482;-73
2023/01/05 07:40:41;;;;;;;1.43;0.80;;;;;;;;;;5093814;28;20450;-74
2023/01/05 07:43:08;;;;;;;1.20;0.80;;;;;;;;;;5094047;28;20824;-73
2023/01/05 07:45:35;;;;;;;1.30;0.80;;;;;;;;;;5093835;28;20451;-73
2023/01/05 07:48:02;;;;;;;1.20;0.80;;;;;;;;;;5093899;28;20471;-73
2023/01/05 07:50:31;;;;;;;1.20;0.77;;;;;;;;;;5094311;28;20458;-73
2023/01/05 07:52:59;;;;;;;1.30;0.80;;;;;;;;;;5094219;28;20454;-73
2023/01/05 07:55:26;;;;;;;1.10;0.70;;;;;;;;;;5094117;28;20931;-73
2023/01/05 07:57:55;;;;;;;1.10;0.70;;;;;;;;;;5094001;28;20841;-73
2023/01/05 08:00:22;;;;;;;1.30;0.83;;;;;;;;;;5093874;28;20891;-73
2023/01/05 08:02:49;;;;;;;7.80;1.27;;;;;;;;;;5093598;28;20486;-73
2023/01/05 08:05:16;;;;;;;1.57;1.00;;;;;;;;;;5093903;28;20453;-73
2023/01/05 08:07:45;;;;;;;1.20;0.80;;;;;;;;;;5093964;28;20466;-73
2023/01/05 08:15:51;;;;;;;1.30;0.83;;;;;;;;;;5093597;28;20398;-74
2023/01/05 08:18:18;;;;;;;1.33;0.97;;;;;;;;;;5093719;28;20489;-73
2023/01/05 08:20:50;;;;;;;5.63;0.90;;;;;;;;;;5093429;28;20446;-73
2023/01/05 08:23:18;;;;;;;1.83;1.20;;;;;;;;;;5093401;28;20555;-74
2023/01/05 08:25:45;;;;;;;1.40;1.00;;;;;;;;;;5093027;28;20431;-73
2023/01/05 08:28:14;;;;;;;1.30;0.80;;;;;;;;;;5093228;28;20463;-74
2023/01/05 08:30:43;;;;;;;1.30;0.80;;;;;;;;;;5090501;28;20474;-73
2023/01/05 08:33:10;;;;;;;1.17;0.77;;;;;;;;;;5093027;28;20811;-74
2023/01/05 08:35:40;;;;;;;1.33;0.80;;;;;;;;;;5093419;28;20939;-73
2023/01/05 08:38:07;;;;;;;1.30;0.87;;;;;;;;;;5093371;28;20478;-73
2023/01/05 08:40:37;;;;;;;1.30;1.00;;;;;;;;;;5093375;28;20459;-73
2023/01/05 08:43:04;;;;;;;1.40;0.90;;;;;;;;;;5092980;28;20482;-73
2023/01/05 08:45:31;;;;;;;1.10;0.70;;;;;;;;;;5093028;28;20459;-73
2023/01/05 08:47:58;;;;;;;1.67;1.00;;;;;;;;;;5092869;28;20477;-73
2023/01/05 08:50:25;;;;;;;2.73;0.90;;;;;;;;;;5093039;28;20458;-74
2023/01/05 08:52:52;;;;;;;1.40;0.83;;;;;;;;;;5092965;28;20449;-73
2023/01/05 08:55:19;;;;;;;1.40;0.90;;;;;;;;;;5092849;28;20458;-73
2023/01/05 08:57:48;;;;;;;1.70;1.20;;;;;;;;;;5093181;28;20962;-73
2023/01/05 09:00:16;;;;;;;1.73;1.37;;;;;;;;;;5093120;28;20447;-72
2023/01/05 09:02:43;;;;;;;1.93;1.30;;;;;;;;;;5093105;28;20567;-72
2023/01/05 09:05:10;;;;;;;2.53;1.50;;;;;;;;;;5093011;28;20454;-73
2023/01/05 09:07:38;;;;;;;3.33;2.43;;;;;;;;;;5093133;28;20451;-72
2023/01/05 09:10:05;;;;;;;2.50;1.33;;;;;;;;;;5093250;28;20446;-72
2023/01/05 09:12:32;;;;;;;1.90;1.10;;;;;;;;;;5093132;28;20451;-72
2023/01/05 09:15:01;;;;;;;2.53;1.30;;;;;;;;;;5092597;28;20447;-72
2023/01/05 09:17:28;;;;;;;1.33;1.10;;;;;;;;;;5092614;28;20459;-72
2023/01/05 09:19:55;;;;;;;1.60;1.13;;;;;;;;;;5093044;28;20446;-72
2023/01/05 09:22:22;;;;;;;1.50;1.00;;;;;;;;;;5093181;28;20513;-72
2023/01/05 09:24:49;;;;;;;2.50;1.00;;;;;;;;;;5092914;28;20462;-72
2023/01/05 09:27:16;;;;;;;2.30;1.20;;;;;;;;;;5092850;28;20451;-72
2023/01/05 09:29:44;;;;;;;1.73;1.47;;;;;;;;;;5091361;28;20470;-72
2023/01/05 09:32:13;;;;;;;1.37;0.97;;;;;;;;;;5092939;28;20469;-73
2023/01/05 09:34:40;;;;;;;2.63;0.97;;;;;;;;;;5092967;28;20443;-72
2023/01/05 09:37:08;;;;;;;1.50;1.00;;;;;;;;;;5094052;28;20458;-72
2023/01/05 09:39:35;;;;;;;1.60;1.17;;;;;;;;;;5096167;28;21069;-72
2023/01/05 09:42:04;;;;;;;1.87;1.10;;;;;;;;;;5096463;28;20501;-72
2023/01/05 09:44:34;;;;;;;1.30;1.10;;;;;;;;;;5096145;28;20454;-72
2023/01/05 09:47:03;;;;;;;2.73;1.30;;;;;;;;;;5096661;28;20446;-72
2023/01/05 09:49:32;;;;;;;3.63;1.70;;;;;;;;;;5096134;28;20517;-73
2023/01/05 09:52:01;;;;;;;12.77;2.10;;;;;;;;;;5096324;28;20935;-73
2023/01/05 09:54:29;;;;;;;2.73;1.53;;;;;;;;;;5096317;28;20455;-72
2023/01/05 09:56:58;;;;;;;1.80;1.40;;;;;;;;;;5096117;28;20464;-73
2023/01/05 09:59:27;;;;;;;3.10;1.30;;;;;;;;;;5096129;28;21018;-72
2023/01/05 10:01:56;;;;;;;1.27;1.00;;;;;;;;;;5095281;28;20454;-73
2023/01/05 10:04:25;;;;;;;1.50;1.20;;;;;;;;;;5095525;28;20451;-73
2023/01/05 10:06:55;;;;;;;1.63;1.00;;;;;;;;;;5096080;28;20794;-73
2023/01/05 10:09:24;;;;;;;1.87;1.30;;;;;;;;;;5095992;28;20466;-72
2023/01/05 10:14:40;;;;;;;3.00;1.87;;;;;;;;;;5095531;28;20410;-73
2023/01/05 10:17:11;;;;;;;5.63;2.83;;;;;;;;;;5095273;28;20470;-72
2023/01/05 10:19:38;;;;;;;3.07;1.87;;;;;;;;;;5095565;28;20592;-73
2023/01/05 10:22:09;;;;;;;2.40;1.70;;;;;;;;;;5095657;28;20458;-72
2023/01/05 10:24:43;;;;;;;1.70;1.10;;;;;;;;;;5095331;28;20966;-73
2023/01/05 10:27:15;;;;;;;1.70;1.00;;;;;;;;;;5095380;28;20439;-72
2023/01/05 10:29:44;;;;;;;2.97;1.60;;;;;;;;;;5095038;28;20967;-72
2023/01/05 10:32:16;;;;;;;1.77;1.40;;;;;;;;;;5095703;28;20991;-72
2023/01/05 10:34:54;;;;;;;2.07;1.73;;;;;;;;;;5095298;28;20438;-72
2023/01/05 10:37:29;;;;;;;2.43;1.43;;;;;;;;;;5095348;28;20441;-72
2023/01/05 10:40:01;;;;;;;2.10;1.60;;;;;;;;;;5095132;28;20811;-72
2023/01/05 10:42:39;;;;;;;1.70;1.27;;;;;;;;;;5095237;28;20494;-72
2023/01/05 10:45:10;;;;;;;2.30;1.87;;;;;;;;;;5094681;28;20513;-73
2023/01/05 10:47:38;;;;;;;6.33;4.30;;;;;;;;;;5094481;28;20478;-72
2023/01/05 10:50:18;;;;;;;2.07;1.80;;;;;;;;;;5094756;28;20821;-73
2023/01/05 10:52:47;;;;;;;4.93;1.60;;;;;;;;;;5094944;28;20826;-73
2023/01/05 10:55:16;;;;;;;5.57;4.17;;;;;;;;;;5094467;28;20473;-73
2023/01/05 10:57:43;;;;;;;8.33;2.27;;;;;;;;;;5094340;28;21002;-73
2023/01/05 11:00:13;;;;;;;11.23;3.23;;;;;;;;;;5095047;28;20474;-73
2023/01/05 11:02:41;;;;;;;5.60;2.53;;;;;;;;;;5094756;28;20500;-73
2023/01/05 11:05:20;;;;;;;4.20;3.47;;;;;;;;;;5094639;28;20950;-73
2023/01/05 11:07:49;;;;;;;7.63;4.30;;;;;;;;;;5094868;28;20470;-74
2023/01/05 11:10:21;;;;;;;6.10;3.70;;;;;;;;;;5094817;28;20462;-72
2023/01/05 11:12:51;;;;;;;5.10;2.23;;;;;;;;;;5094578;28;20447;-73
2023/01/05 11:15:18;;;;;;;3.50;2.23;;;;;;;;;;5094409;28;20962;-72
2023/01/05 11:17:52;;;;;;;2.80;1.47;;;;;;;;;;5094667;28;20467;-72
2023/01/05 11:20:20;;;;;;;2.73;1.63;;;;;;;;;;5094229;28;20461;-72
2023/01/05 11:22:50;;;;;;;8.47;2.10;;;;;;;;;;5094255;28;20490;-72
2023/01/05 11:25:25;;;;;;;4.90;2.13;;;;;;;;;;5094117;28;20549;-72
2023/01/05 11:28:11;;;;;;;2.83;1.50;;;;;;;;;;5094769;28;20466;-71
2023/01/05 11:30:38;;;;;;;6.77;2.17;;;;;;;;;;5093132;28;20438;-73
2023/01/05 11:33:13;;;;;;;2.50;1.90;;;;;;;;;;5093698;28;20957;-73
2023/01/05 11:35:40;;;;;;;3.17;1.67;;;;;;;;;;5094145;28;20442;-72
2023/01/05 11:38:20;;;;;;;2.40;1.80;;;;;;;;;;5093888;28;20481;-73
2023/01/05 11:40:47;;;;;;;2.27;1.70;;;;;;;;;;5093956;28;20459;-72
2023/01/05 11:43:18;;;;;;;2.70;1.67;;;;;;;;;;5093844;28;20552;-72
2023/01/05 11:45:48;;;;;;;3.83;1.90;;;;;;;;;;5093555;28;20961;-72
2023/01/05 11:48:19;;;;;;;2.40;1.60;;;;;;;;;;5093732;28;20933;-73
2023/01/05 11:50:48;;;;;;;4.20;2.17;;;;;;;;;;5091403;28;20446;-72
2023/01/05 11:53:24;;;;;;;2.83;1.73;;;;;;;;;;5092463;28;20926;-72
2023/01/05 11:56:00;;;;;;;3.43;2.47;;;;;;;;;;5093542;28;20496;-72
2023/01/05 11:58:31;;;;;;;3.47;2.00;;;;;;;;;;5093898;28;20555;-72
2023/01/05 12:01:06;;;;;;;2.30;1.87;;;;;;;;;;5093352;28;20812;-72
2023/01/05 12:03:42;;;;;;;2.07;1.87;;;;;;;;;;5093377;28;20497;-72
2023/01/05 12:06:12;;;;;;;3.30;2.00;;;;;;;;;;5093769;28;20435;-72
2023/01/05 12:08:43;;;;;;;7.47;3.27;;;;;;;;;;5092931;28;20482;-73
2023/01/05 12:11:13;;;;;;;5.93;2.43;;;;;;;;;;5093600;28;20966;-72
2023/01/05 12:13:53;;;;;;;4.40;2.40;;;;;;;;;;5093663;28;20494;-73
2023/01/05 12:16:29;;;;;;;3.90;2.87;;;;;;;;;;5093602;28;20438;-73
2023/01/05 12:19:10;;;;;;;5.93;2.23;;;;;;;;;;5092925;28;20490;-73
2023/01/05 12:21:39;;;;;;;7.00;1.67;;;;;;;;;;5093034;28;20943;-73
2023/01/05 12:24:24;;;;;;;12.33;2.13;;;;;;;;;;5093027;28;21049;-72
2023/01/05 12:26:58;;;;;;;7.30;3.10;;;;;;;;;;5093054;28;20455;-72
2023/01/05 12:29:31;;;;;;;4.13;1.73;;;;;;;;;;5092558;28;20474;-72
2023/01/05 12:32:07;;;;;;;4.93;1.77;;;;;;;;;;5092807;28;20442;-73
2023/01/05 12:34:39;;;;;;;3.53;2.47;;;;;;;;;;5092547;28;20442;-72
2023/01/05 12:37:18;;;;;;;6.43;2.87;;;;;;;;;;5092757;28;20461;-72
2023/01/05 12:40:00;;;;;;;7.47;3.90;;;;;;;;;;5092514;28;20486;-73
2023/01/05 12:42:34;;;;;;;6.97;3.00;;;;;;;;;;5090644;28;20477;-73
2023/01/05 12:45:19;;;;;;;3.60;1.63;;;;;;;;;;5092856;28;20449;-72
2023/01/05 12:47:54;;;;;;;3.00;1.70;;;;;;;;;;5092748;28;20470;-73
2023/01/05 12:50:23;;;;;;;3.80;2.23;;;;;;;;;;5092894;28;20939;-73
2023/01/05 12:52:52;;;;;;;8.20;3.00;;;;;;;;;;5092854;28;20479;-72
2023/01/05 12:55:21;;;;;;;4.93;3.23;;;;;;;;;;5092707;28;20974;-72
2023/01/05 12:57:56;;;;;;;4.33;3.53;;;;;;;;;;5092719;28;20474;-72
2023/01/05 13:00:24;;;;;;;7.17;4.37;;;;;;;;;;5093079;28;20443;-73
2023/01/05 13:02:54;;;;;;;3.13;2.83;;;;;;;;;;5093020;28;20504;-73
2023/01/05 13:05:23;;;;;;;4.20;2.43;;;;;;;;;;5092569;28;20453;-72
2023/01/05 13:07:53;;;;;;;4.50;2.63;;;;;;;;;;5092828;28;20472;-73
2023/01/05 13:10:23;;;;;;;6.43;3.27;;;;;;;;;;5092881;28;20450;-72
2023/01/05 13:12:55;;;;;;;3.70;2.80;;;;;;;;;;5095441;28;20431;-72
2023/01/05 13:15:25;;;;;;;8.20;3.20;;;;;;;;;;5096436;28;20442;-73
2023/01/05 13:17:54;;;;;;;4.80;2.80;;;;;;;;;;5096545;28;20473;-73
2023/01/05 13:20:25;;;;;;;7.07;2.70;;;;;;;;;;5096712;28;20473;-72
2023/01/05 13:22:56;;;;;;;2.30;2.10;;;;;;;;;;5097044;28;20437;-72
2023/01/05 13:25:25;;;;;;;7.60;3.00;;;;;;;;;;5096685;28;20961;-72
2023/01/05 13:27:53;;;;;;;4.00;2.53;;;;;;;;;;5096545;28;20475;-73
2023/01/05 13:30:23;;;;;;;8.83;3.20;;;;;;;;;;5084846;28;20466;-73
2023/01/05 13:32:58;;;;;;;5.87;2.67;;;;;;;;;;5094423;28;20970;-73
2023/01/05 13:35:39;;;;;;;5.90;2.93;;;;;;;;;;5094432;28;20453;-73
2023/01/05 13:38:14;;;;;;;6.53;3.03;;;;;;;;;;5094190;28;20853;-73
2023/01/05 13:41:02;;;;;;;4.57;2.73;;;;;;;;;;5093448;28;20450;-73
2023/01/05 13:43:39;;;;;;;7.77;2.80;;;;;;;;;;5089757;28;21025;-74
2023/01/05 13:46:11;;;;;;;5.13;2.80;;;;;;;;;;5095190;28;20434;-73
2023/01/05 13:48:56;;;;;;;4.10;2.70;;;;;;;;;;5095088;28;20532;-73
2023/01/05 13:51:38;;;;;;;4.87;2.90;;;;;;;;;;5095457;28;20450;-74
2023/01/05 13:54:07;;;;;;;5.00;2.73;;;;;;;;;;5094501;28;20790;-73
2023/01/05 13:56:38;;;;;;;13.63;8.57;;;;;;;;;;5094795;28;20454;-73
2023/01/05 13:59:08;;;;;;;12.60;6.37;;;;;;;;;;5094257;28;20967;-74
2023/01/05 14:01:36;;;;;;;42.63;24.40;;;;;;;;;;5094309;28;20932;-73
2023/01/05 14:04:04;;;;;;;4.30;2.60;;;;;;;;;;5093048;28;20917;-73
2023/01/05 14:06:32;;;;;;;4.63;3.00;;;;;;;;;;5095013;28;20457;-72
2023/01/05 14:09:02;;;;;;;4.27;3.50;;;;;;;;;;5094950;28;20478;-72
2023/01/05 14:11:29;;;;;;;2.87;2.67;;;;;;;;;;5095764;28;20852;-72
2023/01/05 14:13:58;;;;;;;3.93;2.50;;;;;;;;;;5095740;28;20456;-72
2023/01/05 14:16:43;;;;;;;5.67;2.90;;;;;;;;;;5095986;28;21002;-72
2023/01/05 14:19:19;;;;;;;4.90;2.50;;;;;;;;;;5095520;28;20979;-72
2023/01/05 14:22:00;;;;;;;6.30;2.77;;;;;;;;;;5095681;28;20493;-73
2023/01/05 14:24:28;;;;;;;4.80;2.87;;;;;;;;;;5094696;28;20490;-72
2023/01/05 14:27:03;;;;;;;8.50;2.03;;;;;;;;;;5095528;28;20447;-72
2023/01/05 14:29:49;;;;;;;2.97;2.67;;;;;;;;;;5094100;28;20477;-72
2023/01/05 14:32:20;;;;;;;7.00;3.33;;;;;;;;;;5095625;28;20907;-73
2023/01/05 14:34:50;;;;;;;2.80;1.90;;;;;;;;;;5095079;28;20462;-73
2023/01/05 14:37:22;;;;;;;3.53;2.47;;;;;;;;;;5095148;28;20457;-72
2023/01/05 14:39:51;;;;;;;3.60;2.17;;;;;;;;;;5095069;28;20473;-73
2023/01/05 14:42:30;;;;;;;5.73;2.13;;;;;;;;;;5095620;28;20920;-72
2023/01/05 14:44:59;;;;;;;4.90;1.93;;;;;;;;;;5095193;28;20974;-72
2023/01/05 14:47:34;;;;;;;12.50;3.00;;;;;;;;;;5095350;28;20450;-73
2023/01/05 14:50:03;;;;;;;8.17;2.93;;;;;;;;;;5095178;28;20767;-73
2023/01/05 14:52:49;;;;;;;5.93;2.60;;;;;;;;;;5095314;28;20489;-72
2023/01/05 14:55:20;;;;;;;5.17;2.17;;;;;;;;;;5094603;28;20935;-73
2023/01/05 14:57:51;;;;;;;4.40;2.47;;;;;;;;;;5095108;28;20983;-73
2023/01/05 15:00:22;;;;;;;7.20;3.30;;;;;;;;;;5094773;28;20458;-72
2023/01/05 15:02:54;;;;;;;11.13;2.23;;;;;;;;;;5094631;28;20553;-72
2023/01/05 15:05:23;;;;;;;4.43;2.00;;;;;;;;;;5093948;28;20493;-73
2023/01/05 15:07:55;;;;;;;12.23;3.97;;;;;;;;;;5094572;28;20470;-73
2023/01/05 15:10:40;;;;;;;16.20;4.97;;;;;;;;;;5094937;28;20778;-72
2023/01/05 15:13:26;;;;;;;5.97;2.10;;;;;;;;;;5084586;28;20477;-72
2023/01/05 15:15:57;;;;;;;11.97;3.77;;;;;;;;;;5094705;28;20438;-72
2023/01/05 15:18:45;;;;;;;3.20;1.87;;;;;;;;;;5094616;28;20473;-72
2023/01/05 15:21:27;;;;;;;6.43;3.07;;;;;;;;;;5094711;28;20465;-72
2023/01/05 15:24:07;;;;;;;5.07;1.90;;;;;;;;;;5094192;28;21018;-72
2023/01/05 15:26:43;;;;;;;5.77;2.47;;;;;;;;;;5094671;28;20435;-72
2023/01/05 15:29:34;;;;;;;8.40;3.07;;;;;;;;;;5094161;28;20474;-73
2023/01/05 15:32:12;;;;;;;8.67;4.10;;;;;;;;;;5094299;28;20826;-72
2023/01/05 15:34:43;;;;;;;4.20;2.17;;;;;;;;;;5093242;28;20947;-72
2023/01/05 15:37:14;;;;;;;5.50;2.50;;;;;;;;;;5094110;28;20458;-73
2023/01/05 15:39:49;;;;;;;6.33;2.70;;;;;;;;;;5093767;28;20553;-73